createdAt,value
2022-07-27T00:01:09.068Z,13.82
2022-07-27T00:03:36.177Z,13.55
2022-07-27T00:06:03.241Z,13.70
2022-07-27T00:08:30.123Z,14.50
2022-07-27T00:10:57.480Z,13.32
2022-07-27T00:13:24.450Z,14.32
2022-07-27T00:15:51.716Z,13.82
2022-07-27T00:18:18.527Z,13.20
2022-07-27T00:20:45.328Z,14.25
2022-07-27T00:23:12.216Z,12.80
2022-07-27T00:25:39.272Z,13.57
2022-07-27T00:28:06.348Z,13.10
2022-07-27T00:30:33.339Z,13.63
2022-07-27T00:33:00.597Z,13.90
2022-07-27T00:35:27.576Z,13.95
2022-07-27T00:37:54.371Z,13.98
2022-07-27T00:40:21.452Z,12.68
2022-07-27T00:42:48.198Z,13.85
2022-07-27T00:45:15.055Z,13.75
2022-07-27T00:47:41.856Z,14.48
2022-07-27T00:50:09.663Z,13.60
2022-07-27T00:52:38.488Z,14.73
2022-07-27T00:55:06.116Z,14.10
2022-07-27T00:57:33.353Z,14.90
2022-07-27T01:00:21.374Z,13.48
2022-07-27T01:02:51.431Z,15.15
2022-07-27T01:05:18.437Z,13.25
2022-07-27T01:07:45.386Z,14.38
2022-07-27T01:10:12.677Z,14.43
2022-07-27T01:12:39.417Z,14.98
2022-07-27T01:15:06.726Z,12.93
2022-07-27T01:17:33.783Z,14.38
2022-07-27T01:20:00.679Z,13.90
2022-07-27T01:22:27.584Z,14.38
2022-07-27T01:24:54.603Z,15.40
2022-07-27T01:27:21.571Z,14.20
2022-07-27T01:29:48.843Z,15.05
2022-07-27T01:32:15.858Z,13.60
2022-07-27T01:34:42.809Z,15.10
2022-07-27T01:37:09.566Z,15.00
2022-07-27T01:39:36.459Z,13.43
2022-07-27T01:42:03.814Z,15.10
2022-07-27T01:44:30.749Z,14.68
2022-07-27T01:46:57.496Z,13.52
2022-07-27T01:49:24.433Z,15.60
2022-07-27T01:51:51.914Z,15.15
2022-07-27T01:54:18.705Z,14.77
2022-07-27T01:56:45.489Z,15.43
2022-07-27T01:59:16.114Z,15.10
2022-07-27T02:01:44.697Z,16.10
2022-07-27T02:04:11.982Z,14.95
2022-07-27T02:06:39.559Z,15.07
2022-07-27T02:09:06.625Z,15.43
2022-07-27T02:11:52.482Z,15.80
2022-07-27T02:14:21.146Z,16.15
2022-07-27T02:16:48.400Z,15.35
2022-07-27T02:19:19.031Z,14.70
2022-07-27T02:21:46.070Z,15.20
2022-07-27T02:24:12.924Z,14.88
2022-07-27T02:26:39.927Z,15.95
2022-07-27T02:29:07.027Z,15.35
2022-07-27T02:31:34.176Z,15.57
2022-07-27T02:34:01.125Z,14.88
2022-07-27T02:36:30.613Z,14.73
2022-07-27T02:38:58.317Z,16.10
2022-07-27T02:41:25.567Z,15.77
2022-07-27T02:43:52.326Z,16.10
2022-07-27T02:46:19.203Z,16.70
2022-07-27T02:48:46.204Z,15.63
2022-07-27T02:51:15.025Z,16.60
2022-07-27T02:53:42.223Z,16.60
2022-07-27T02:56:09.235Z,15.60
2022-07-27T02:58:36.286Z,15.90
2022-07-27T03:01:05.199Z,17.15
2022-07-27T03:03:32.940Z,17.98
2022-07-27T03:06:05.387Z,16.92
2022-07-27T03:08:32.448Z,17.98
2022-07-27T03:10:59.418Z,17.58
2022-07-27T03:13:26.707Z,16.67
2022-07-27T03:15:53.641Z,18.67
2022-07-27T03:18:20.814Z,16.08
2022-07-27T03:20:47.585Z,16.23
2022-07-27T03:23:14.431Z,16.15
2022-07-27T03:25:41.302Z,16.92
2022-07-27T03:28:08.195Z,18.75
2022-07-27T03:30:35.015Z,17.17
2022-07-27T03:33:02.028Z,18.33
2022-07-27T03:35:29.011Z,18.23
2022-07-27T03:37:56.407Z,19.08
2022-07-27T03:40:23.210Z,18.20
2022-07-27T03:42:50.029Z,18.42
2022-07-27T03:45:16.797Z,18.33
2022-07-27T03:47:43.694Z,17.52
2022-07-27T03:50:10.810Z,16.85
2022-07-27T03:52:37.566Z,18.00
2022-07-27T03:55:06.324Z,16.30
2022-07-27T03:57:33.294Z,16.52
2022-07-27T04:00:00.083Z,17.73
2022-07-27T04:02:26.973Z,17.10
2022-07-27T04:04:53.805Z,17.63
2022-07-27T04:07:21.040Z,19.55
2022-07-27T04:09:47.799Z,16.83
2022-07-27T04:12:15.204Z,16.80
2022-07-27T04:14:44.537Z,16.52
2022-07-27T04:17:11.373Z,16.10
2022-07-27T04:19:38.155Z,17.13
2022-07-27T04:22:05.134Z,17.45
2022-07-27T04:24:32.010Z,16.90
2022-07-27T04:26:58.845Z,17.35
2022-07-27T04:29:26.030Z,17.13
2022-07-27T04:31:53.150Z,17.55
2022-07-27T04:34:20.199Z,12.05
2022-07-27T04:36:47.125Z,13.93
2022-07-27T04:39:14.225Z,13.38
2022-07-27T04:41:41.271Z,14.02
2022-07-27T04:44:08.562Z,14.07
2022-07-27T04:46:35.449Z,13.05
2022-07-27T04:49:02.407Z,13.95
2022-07-27T04:51:34.170Z,13.18
2022-07-27T04:54:02.030Z,11.60
2022-07-27T04:56:28.939Z,12.70
2022-07-27T04:58:56.317Z,13.65
2022-07-27T05:01:23.669Z,17.33
2022-07-27T05:03:50.755Z,15.77
2022-07-27T05:06:17.736Z,15.45
2022-07-27T05:08:44.795Z,15.23
2022-07-27T05:11:11.663Z,13.85
2022-07-27T05:13:40.595Z,14.23
2022-07-27T05:16:09.517Z,14.18
2022-07-27T05:18:37.909Z,13.02
2022-07-27T05:21:05.433Z,13.20
2022-07-27T05:23:32.540Z,11.38
2022-07-27T05:25:59.637Z,9.68
2022-07-27T05:28:26.709Z,10.88
2022-07-27T05:30:53.700Z,11.15
2022-07-27T05:33:20.456Z,9.82
2022-07-27T05:35:47.234Z,8.70
2022-07-27T05:38:14.368Z,8.68
2022-07-27T05:40:43.460Z,9.23
2022-07-27T05:43:10.358Z,9.43
2022-07-27T05:45:38.237Z,9.10
2022-07-27T05:48:05.563Z,9.45
2022-07-27T05:50:32.602Z,9.65
2022-07-27T05:53:01.088Z,10.05
2022-07-27T05:55:28.022Z,10.98
2022-07-27T05:57:55.817Z,11.32
2022-07-27T06:00:22.642Z,10.75
2022-07-27T06:02:49.443Z,10.13
2022-07-27T06:05:17.352Z,10.68
2022-07-27T06:08:00.262Z,11.60
2022-07-27T06:10:29.523Z,11.23
2022-07-27T06:12:58.895Z,12.50
2022-07-27T06:15:26.409Z,11.23
2022-07-27T06:17:54.256Z,10.73
2022-07-27T06:20:22.436Z,11.98
2022-07-27T06:22:54.306Z,11.65
2022-07-27T06:25:22.049Z,11.05
2022-07-27T06:27:49.300Z,11.32
2022-07-27T06:30:18.150Z,11.48
2022-07-27T06:32:45.004Z,9.82
2022-07-27T06:35:14.314Z,9.85
2022-07-27T06:37:44.275Z,10.15
2022-07-27T06:40:13.452Z,10.63
2022-07-27T06:42:41.238Z,9.68
2022-07-27T06:45:09.048Z,10.18
2022-07-27T06:47:36.827Z,12.45
2022-07-27T06:50:20.728Z,10.15
2022-07-27T06:52:48.540Z,10.48
2022-07-27T06:55:15.554Z,9.75
2022-07-27T06:57:43.134Z,9.27
2022-07-27T07:00:11.553Z,9.15
2022-07-27T07:02:39.825Z,9.57
2022-07-27T07:05:09.316Z,10.20
2022-07-27T07:07:37.295Z,8.70
2022-07-27T07:10:04.315Z,7.43
2022-07-27T07:12:32.480Z,8.52
2022-07-27T07:14:59.386Z,8.52
2022-07-27T07:17:27.252Z,9.13
2022-07-27T07:19:54.012Z,8.98
2022-07-27T07:22:20.859Z,9.32
2022-07-27T07:24:47.650Z,9.48
2022-07-27T07:27:14.427Z,9.52
2022-07-27T07:29:41.303Z,8.60
2022-07-27T07:32:08.134Z,6.50
2022-07-27T07:34:34.868Z,8.48
2022-07-27T07:37:01.648Z,7.28
2022-07-27T07:39:31.348Z,7.65
2022-07-27T07:41:59.011Z,8.60
2022-07-27T07:44:26.360Z,8.40
2022-07-27T07:46:53.267Z,8.70
2022-07-27T07:49:38.110Z,8.07
2022-07-27T07:52:07.948Z,8.82
2022-07-27T07:54:35.169Z,8.00
2022-07-27T07:57:02.138Z,8.85
2022-07-27T07:59:28.953Z,8.68
2022-07-27T08:01:55.877Z,7.68
2022-07-27T08:04:22.783Z,7.75
2022-07-27T08:06:49.757Z,8.05
2022-07-27T08:09:21.753Z,8.75
2022-07-27T08:11:48.570Z,8.25
2022-07-27T08:14:15.711Z,8.18
2022-07-27T08:16:42.776Z,7.72
2022-07-27T08:19:09.983Z,7.88
2022-07-27T08:21:36.930Z,9.00
2022-07-27T08:24:03.940Z,7.63
2022-07-27T08:26:30.738Z,7.90
2022-07-27T08:29:13.177Z,7.75
2022-07-27T08:31:51.232Z,7.72
2022-07-27T08:34:19.304Z,7.95
2022-07-27T08:36:46.101Z,8.40
2022-07-27T08:39:41.291Z,7.78
2022-07-27T08:42:06.478Z,8.18
2022-07-27T08:47:04.022Z,7.88
2022-07-27T08:49:42.462Z,8.35
2022-07-27T08:52:11.217Z,7.63
2022-07-27T08:54:42.032Z,7.90
2022-07-27T08:57:09.878Z,7.85
2022-07-27T08:59:37.454Z,8.50
2022-07-27T09:02:09.992Z,7.65
2022-07-27T09:04:42.297Z,8.00
2022-07-27T09:07:09.218Z,7.50
2022-07-27T09:09:47.045Z,7.93
2022-07-27T09:12:14.022Z,8.50
2022-07-27T09:14:42.225Z,7.82
2022-07-27T09:17:48.087Z,7.65
2022-07-27T09:20:18.650Z,6.82
2022-07-27T09:22:56.531Z,7.90
2022-07-27T09:25:45.300Z,7.03
2022-07-27T09:28:11.557Z,7.57
2022-07-27T09:30:43.159Z,7.07
2022-07-27T09:33:10.928Z,7.68
2022-07-27T09:35:38.093Z,7.05
2022-07-27T09:38:25.211Z,7.30
2022-07-27T09:41:03.772Z,7.45
2022-07-27T09:46:30.349Z,8.02
2022-07-27T09:48:57.590Z,7.00
2022-07-27T09:54:13.460Z,7.70
2022-07-27T09:56:40.729Z,8.40
2022-07-27T09:59:07.579Z,7.32
2022-07-27T10:01:42.231Z,7.57
2022-07-27T10:04:14.157Z,7.68
2022-07-27T10:07:01.056Z,7.15
2022-07-27T10:09:31.149Z,7.82
2022-07-27T10:11:58.556Z,7.10
2022-07-27T10:14:25.837Z,6.60
2022-07-27T10:16:55.161Z,8.18
2022-07-27T10:19:50.805Z,6.72
2022-07-27T10:22:49.565Z,7.93
2022-07-27T10:25:16.514Z,7.40
2022-07-27T10:27:47.366Z,7.22
2022-07-27T10:30:17.697Z,6.85
2022-07-27T10:32:51.906Z,7.10
2022-07-27T10:35:37.356Z,6.63
2022-07-27T10:38:13.076Z,7.07
2022-07-27T10:40:40.007Z,7.60
2022-07-27T10:43:20.035Z,6.85
2022-07-27T10:46:00.070Z,6.43
2022-07-27T10:48:42.739Z,6.57
2022-07-27T10:51:16.573Z,8.27
2022-07-27T10:54:11.099Z,7.15
2022-07-27T10:56:52.374Z,7.28
2022-07-27T10:59:58.205Z,7.55
2022-07-27T11:02:40.947Z,6.53
2022-07-27T11:05:24.675Z,7.07
2022-07-27T11:08:29.552Z,6.13
2022-07-27T11:10:44.418Z,6.85
2022-07-27T11:13:12.988Z,6.57
2022-07-27T11:15:40.126Z,7.30
2022-07-27T11:18:06.975Z,6.80
2022-07-27T11:20:33.750Z,7.28
2022-07-27T11:23:48.728Z,6.13
2022-07-27T11:26:02.435Z,6.68
2022-07-27T11:28:30.903Z,6.70
2022-07-27T11:30:58.942Z,7.32
2022-07-27T11:33:26.148Z,6.53
2022-07-27T11:35:53.945Z,6.55
2022-07-27T11:38:21.766Z,7.10
2022-07-27T11:40:57.111Z,6.57
2022-07-27T11:43:40.025Z,6.22
2022-07-27T11:46:29.781Z,6.85
2022-07-27T11:49:09.012Z,6.97
2022-07-27T11:51:42.777Z,6.78
2022-07-27T11:54:24.378Z,6.18
2022-07-27T11:56:55.042Z,6.88
2022-07-27T11:59:24.790Z,6.78
2022-07-27T12:02:00.180Z,6.72
2022-07-27T12:04:33.005Z,6.53
2022-07-27T12:09:36.815Z,6.28
2022-07-27T12:12:20.479Z,5.85
2022-07-27T12:14:54.373Z,5.95
2022-07-27T12:17:37.404Z,6.35
2022-07-27T12:20:09.145Z,6.47
2022-07-27T12:22:54.967Z,6.13
2022-07-27T12:25:22.154Z,6.07
2022-07-27T12:28:06.660Z,7.00
2022-07-27T12:30:48.263Z,6.60
2022-07-27T12:33:38.106Z,6.15
2022-07-27T12:36:08.346Z,6.32
2022-07-27T12:38:39.831Z,6.63
2022-07-27T12:41:07.331Z,6.38
2022-07-27T12:43:34.094Z,6.65
2022-07-27T12:46:13.665Z,6.38
2022-07-27T12:48:42.825Z,6.22
2022-07-27T12:51:11.127Z,6.82
2022-07-27T12:53:38.319Z,6.22
2022-07-27T12:56:10.405Z,5.82
2022-07-27T12:58:37.775Z,6.43
2022-07-27T13:01:06.017Z,6.03
2022-07-27T13:03:33.770Z,6.38
2022-07-27T13:06:07.903Z,6.35
2022-07-27T13:08:39.328Z,7.05
2022-07-27T13:11:06.262Z,6.40
2022-07-27T13:13:33.121Z,6.65
2022-07-27T13:16:00.013Z,6.03
2022-07-27T13:18:27.096Z,5.50
2022-07-27T13:20:54.153Z,5.40
2022-07-27T13:23:21.315Z,5.38
2022-07-27T13:25:49.658Z,6.30
2022-07-27T13:28:16.445Z,6.18
2022-07-27T13:30:43.229Z,5.32
2022-07-27T13:33:11.550Z,5.82
2022-07-27T13:35:38.426Z,5.65
2022-07-27T13:38:05.281Z,5.65
2022-07-27T13:40:32.125Z,5.78
2022-07-27T13:42:58.861Z,6.10
2022-07-27T13:45:25.808Z,5.78
2022-07-27T13:47:53.947Z,5.97
2022-07-27T13:50:22.263Z,6.40
2022-07-27T13:52:49.678Z,5.63
2022-07-27T13:55:17.342Z,5.32
2022-07-27T13:57:45.492Z,5.65
2022-07-27T14:00:13.576Z,4.80
2022-07-27T14:02:41.882Z,5.70
2022-07-27T14:05:13.086Z,4.85
2022-07-27T14:07:41.320Z,5.07
2022-07-27T14:10:47.121Z,5.25
2022-07-27T14:13:16.279Z,5.30
2022-07-27T14:15:50.856Z,5.32
2022-07-27T14:18:21.450Z,4.90
2022-07-27T14:20:48.413Z,5.38
2022-07-27T14:23:15.230Z,5.47
2022-07-27T14:25:41.988Z,5.20
2022-07-27T14:28:08.810Z,5.75
2022-07-27T14:30:35.898Z,5.63
2022-07-27T14:33:04.070Z,5.00
2022-07-27T14:35:31.090Z,4.85
2022-07-27T14:38:00.239Z,4.38
2022-07-27T14:40:27.672Z,5.80
2022-07-27T14:42:54.544Z,4.85
2022-07-27T14:45:21.648Z,4.53
2022-07-27T14:47:48.529Z,5.00
2022-07-27T14:50:15.717Z,4.65
2022-07-27T14:52:43.467Z,5.40
2022-07-27T14:55:14.868Z,5.32
2022-07-27T14:57:43.497Z,5.05
2022-07-27T15:00:14.084Z,4.88
2022-07-27T15:02:43.101Z,5.13
2022-07-27T15:05:11.646Z,4.53
2022-07-27T15:07:39.127Z,5.80
2022-07-27T15:10:08.736Z,4.88
2022-07-27T15:12:39.095Z,5.32
2022-07-27T15:15:08.507Z,4.65
2022-07-27T15:17:37.626Z,5.15
2022-07-27T15:20:07.218Z,5.30
2022-07-27T15:22:34.083Z,5.15
2022-07-27T15:25:01.092Z,6.10
2022-07-27T15:27:27.933Z,4.93
2022-07-27T15:29:55.045Z,5.88
2022-07-27T15:32:22.157Z,5.15
2022-07-27T15:34:50.255Z,5.35
2022-07-27T15:37:19.174Z,4.85
2022-07-27T15:39:47.350Z,5.30
2022-07-27T15:42:14.290Z,4.78
2022-07-27T15:44:41.566Z,4.93
2022-07-27T15:47:08.686Z,4.43
2022-07-27T15:49:35.829Z,5.43
2022-07-27T15:52:03.056Z,4.90
2022-07-27T15:54:33.451Z,5.45
2022-07-27T15:57:01.792Z,4.82
2022-07-27T15:59:28.718Z,5.57
2022-07-27T16:01:55.801Z,5.85
2022-07-27T16:04:22.683Z,5.90
2022-07-27T16:06:49.540Z,5.45
2022-07-27T16:09:16.727Z,4.90
2022-07-27T16:11:43.999Z,5.25
2022-07-27T16:14:10.834Z,5.18
2022-07-27T16:16:37.987Z,5.28
2022-07-27T16:19:13.151Z,6.28
2022-07-27T16:21:55.133Z,5.72
2022-07-27T16:24:26.647Z,5.45
2022-07-27T16:26:53.901Z,5.45
2022-07-27T16:29:21.255Z,4.80
2022-07-27T16:31:48.257Z,5.82
2022-07-27T16:34:15.204Z,5.57
2022-07-27T16:36:42.307Z,6.30
2022-07-27T16:39:09.388Z,5.90
2022-07-27T16:41:36.559Z,5.53
2022-07-27T16:44:04.191Z,4.93
2022-07-27T16:46:31.126Z,5.22
2022-07-27T16:48:57.997Z,6.00
2022-07-27T16:51:25.005Z,6.25
2022-07-27T16:53:52.156Z,5.88
2022-07-27T16:56:18.985Z,5.22
2022-07-27T16:58:45.922Z,4.93
2022-07-27T17:01:21.732Z,5.00
2022-07-27T17:03:55.417Z,5.40
2022-07-27T17:06:22.531Z,6.80
2022-07-27T17:08:49.480Z,6.20
2022-07-27T17:11:20.839Z,5.15
2022-07-27T17:13:50.040Z,5.45
2022-07-27T17:16:17.715Z,6.10
2022-07-27T17:18:44.740Z,6.93
2022-07-27T17:21:13.157Z,5.25
2022-07-27T17:23:42.489Z,7.25
2022-07-27T17:26:12.049Z,6.53
2022-07-27T17:28:40.234Z,5.50
2022-07-27T17:31:10.075Z,5.88
2022-07-27T17:33:38.173Z,6.03
2022-07-27T17:36:07.506Z,5.03
2022-07-27T17:38:38.974Z,5.28
2022-07-27T17:41:06.057Z,5.70
2022-07-27T17:43:34.957Z,6.28
2022-07-27T17:46:01.918Z,15.05
2022-07-27T17:48:28.723Z,10.27
2022-07-27T17:50:55.630Z,5.20
2022-07-27T17:53:22.396Z,5.15
2022-07-27T17:55:49.208Z,5.70
2022-07-27T17:58:16.053Z,14.73
2022-07-27T18:00:42.894Z,6.07
2022-07-27T18:03:12.839Z,5.55
2022-07-27T18:05:40.290Z,5.38
2022-07-27T18:08:07.347Z,6.82
2022-07-27T18:10:38.428Z,6.80
2022-07-27T18:13:06.414Z,6.72
2022-07-27T18:15:54.252Z,6.45
2022-07-27T18:18:24.788Z,7.40
2022-07-27T18:20:57.851Z,6.43
2022-07-27T18:23:28.285Z,6.47
2022-07-27T18:25:55.387Z,6.93
2022-07-27T18:28:22.610Z,8.07
2022-07-27T18:30:51.107Z,6.68
2022-07-27T18:33:18.805Z,6.13
2022-07-27T18:35:46.564Z,6.28
2022-07-27T18:38:14.002Z,6.95
2022-07-27T18:40:43.000Z,6.07
2022-07-27T18:43:10.938Z,6.13
2022-07-27T18:45:38.907Z,8.02
2022-07-27T18:48:08.582Z,6.65
2022-07-27T18:50:39.167Z,7.18
2022-07-27T18:53:07.386Z,7.53
2022-07-27T18:55:34.509Z,8.05
2022-07-27T18:58:02.255Z,7.50
2022-07-27T19:00:31.866Z,6.97
2022-07-27T19:02:58.897Z,7.50
2022-07-27T19:05:32.784Z,6.75
2022-07-27T19:08:13.446Z,7.03
2022-07-27T19:10:45.003Z,6.38
2022-07-27T19:13:12.793Z,8.07
2022-07-27T19:15:40.671Z,7.55
2022-07-27T19:18:08.179Z,7.28
2022-07-27T19:20:36.703Z,7.38
2022-07-27T19:23:07.186Z,6.95
2022-07-27T19:25:34.310Z,8.35
2022-07-27T19:28:02.034Z,6.82
2022-07-27T19:30:28.869Z,6.28
2022-07-27T19:32:56.573Z,7.05
2022-07-27T19:35:23.522Z,7.20
2022-07-27T19:37:50.578Z,7.70
2022-07-27T19:40:43.514Z,7.97
2022-07-27T19:43:05.140Z,6.82
2022-07-27T19:45:32.305Z,6.60
2022-07-27T19:48:01.628Z,6.95
2022-07-27T19:50:28.550Z,8.13
2022-07-27T19:52:55.362Z,8.50
2022-07-27T19:55:22.299Z,7.35
2022-07-27T19:57:49.264Z,7.43
2022-07-27T20:00:16.480Z,8.48
2022-07-27T20:02:43.641Z,8.15
2022-07-27T20:05:10.836Z,7.75
2022-07-27T20:07:37.751Z,8.45
2022-07-27T20:10:06.788Z,7.32
2022-07-27T20:12:33.795Z,7.93
2022-07-27T20:15:00.912Z,9.18
2022-07-27T20:17:28.386Z,7.65
2022-07-27T20:19:55.315Z,9.30
2022-07-27T20:22:22.495Z,8.73
2022-07-27T20:24:49.365Z,8.10
2022-07-27T20:27:16.156Z,8.00
2022-07-27T20:29:46.168Z,8.95
2022-07-27T20:32:13.125Z,8.73
2022-07-27T20:34:40.198Z,8.35
2022-07-27T20:37:07.123Z,7.88
2022-07-27T20:39:34.083Z,7.90
2022-07-27T20:42:00.964Z,8.55
2022-07-27T20:44:27.866Z,8.20
2022-07-27T20:46:54.748Z,8.10
2022-07-27T20:49:22.060Z,7.97
2022-07-27T20:51:48.981Z,8.60
2022-07-27T20:54:15.786Z,8.20
2022-07-27T20:56:42.577Z,9.32
2022-07-27T20:59:17.125Z,7.93
2022-07-27T21:01:44.797Z,8.50
2022-07-27T21:04:11.784Z,7.60
2022-07-27T21:06:40.563Z,8.07
2022-07-27T21:09:08.866Z,7.85
2022-07-27T21:11:35.658Z,7.68
2022-07-27T21:14:02.727Z,8.80
2022-07-27T21:16:29.879Z,7.68
2022-07-27T21:18:56.778Z,7.57
2022-07-27T21:21:27.438Z,7.90
2022-07-27T21:24:13.404Z,9.18
2022-07-27T21:26:40.468Z,8.77
2022-07-27T21:29:09.498Z,8.38
2022-07-27T21:31:36.655Z,8.18
2022-07-27T21:34:08.308Z,7.97
2022-07-27T21:36:35.364Z,7.97
2022-07-27T21:39:02.286Z,8.77
2022-07-27T21:41:29.118Z,8.90
2022-07-27T21:43:55.925Z,7.95
2022-07-27T21:46:23.215Z,8.27
2022-07-27T21:48:50.100Z,8.30
2022-07-27T21:51:18.433Z,8.98
2022-07-27T21:53:49.987Z,8.10
2022-07-27T21:56:17.601Z,7.90
2022-07-27T21:58:48.835Z,8.00
2022-07-27T22:01:16.603Z,9.45
2022-07-27T22:03:44.251Z,9.68
2022-07-27T22:06:11.357Z,11.95
2022-07-27T22:08:38.503Z,13.38
2022-07-27T22:11:05.968Z,12.32
2022-07-27T22:13:33.562Z,13.73
2022-07-27T22:16:00.934Z,12.23
2022-07-27T22:18:28.834Z,10.43
2022-07-27T22:20:56.269Z,8.98
2022-07-27T22:23:23.507Z,8.60
2022-07-27T22:25:50.694Z,9.02
2022-07-27T22:28:17.536Z,8.52
2022-07-27T22:30:44.435Z,8.35
2022-07-27T22:33:31.379Z,9.32
2022-07-27T22:35:58.162Z,8.43
2022-07-27T22:38:25.009Z,9.18
2022-07-27T22:40:56.199Z,8.95
2022-07-27T22:43:23.249Z,9.27
2022-07-27T22:45:51.921Z,9.65
2022-07-27T22:48:18.784Z,8.32
2022-07-27T22:50:45.622Z,8.68
2022-07-27T22:53:14.347Z,9.05
2022-07-27T22:55:41.299Z,9.00
2022-07-27T22:58:08.119Z,9.05
2022-07-27T23:00:35.185Z,8.35
2022-07-27T23:03:02.043Z,8.52
2022-07-27T23:05:29.088Z,9.40
2022-07-27T23:07:55.893Z,9.40
2022-07-27T23:10:41.333Z,8.38
2022-07-27T23:13:08.610Z,8.82
2022-07-27T23:15:37.367Z,8.60
2022-07-27T23:18:04.844Z,9.20
2022-07-27T23:20:31.949Z,8.00
2022-07-27T23:22:58.887Z,9.18
2022-07-27T23:25:35.197Z,8.02
2022-07-27T23:28:04.336Z,8.40
2022-07-27T23:30:31.341Z,7.28
2022-07-27T23:32:58.189Z,6.90
2022-07-27T23:35:25.201Z,6.45
2022-07-27T23:37:52.014Z,6.50
2022-07-27T23:40:19.039Z,6.68
2022-07-27T23:42:45.949Z,7.05
2022-07-27T23:45:13.020Z,7.30
2022-07-27T23:47:40.446Z,6.22
2022-07-27T23:50:09.162Z,7.80
2022-07-27T23:52:37.883Z,6.90
2022-07-27T23:55:05.914Z,6.07
2022-07-27T23:57:33.107Z,7.30
2022-07-27T23:59:59.918Z,7.03
